sensor_id;sensor_type;location;lat;lon;timestamp;temperature;humidity
16867;DHT22;8550;52.596;13.320;2022-11-15T00:03:51;5.80;99.90
16867;DHT22;8550;52.596;13.320;2022-11-15T00:08:53;5.80;99.90
16867;DHT22;8550;52.596;13.320;2022-11-15T00:13:56;5.80;99.90
16867;DHT22;8550;52.596;13.320;2022-11-15T00:18:58;5.70;99.90
16867;DHT22;8550;52.596;13.320;2022-11-15T00:24:00;5.70;99.90
16867;DHT22;8550;52.596;13.320;2022-11-15T00:29:03;5.70;99.90
16867;DHT22;8550;52.596;13.320;2022-11-15T00:34:06;5.60;99.90
16867;DHT22;8550;52.596;13.320;2022-11-15T00:39:08;5.60;99.90
16867;DHT22;8550;52.596;13.320;2022-11-15T00:44:11;5.60;99.90
16867;DHT22;8550;52.596;13.320;2022-11-15T00:49:13;5.50;99.90
16867;DHT22;8550;52.596;13.320;2022-11-15T00:54:15;5.50;99.90
16867;DHT22;8550;52.596;13.320;2022-11-15T00:59:18;5.40;99.90
16867;DHT22;8550;52.596;13.320;2022-11-15T01:04:20;5.30;99.90
16867;DHT22;8550;52.596;13.320;2022-11-15T01:09:22;5.30;99.90
16867;DHT22;8550;52.596;13.320;2022-11-15T01:14:26;5.20;99.90
16867;DHT22;8550;52.596;13.320;2022-11-15T01:19:28;5.30;99.90
16867;DHT22;8550;52.596;13.320;2022-11-15T01:24:29;5.30;99.90
16867;DHT22;8550;52.596;13.320;2022-11-15T01:29:33;5.40;99.90
16867;DHT22;8550;52.596;13.320;2022-11-15T01:34:35;5.40;99.90
16867;DHT22;8550;52.596;13.320;2022-11-15T01:39:37;5.40;99.90
16867;DHT22;8550;52.596;13.320;2022-11-15T01:44:42;5.40;99.90
16867;DHT22;8550;52.596;13.320;2022-11-15T01:49:51;5.50;99.90
16867;DHT22;8550;52.596;13.320;2022-11-15T01:54:58;5.60;99.90
16867;DHT22;8550;52.596;13.320;2022-11-15T02:00:06;5.60;99.90
16867;DHT22;8550;52.596;13.320;2022-11-15T02:05:09;5.60;99.90
16867;DHT22;8550;52.596;13.320;2022-11-15T02:10:12;5.70;99.90
16867;DHT22;8550;52.596;13.320;2022-11-15T02:15:16;5.70;99.90
16867;DHT22;8550;52.596;13.320;2022-11-15T02:20:35;5.60;99.90
16867;DHT22;8550;52.596;13.320;2022-11-15T02:25:49;5.50;99.90
16867;DHT22;8550;52.596;13.320;2022-11-15T02:31:00;5.50;99.90
16867;DHT22;8550;52.596;13.320;2022-11-15T02:36:09;5.50;99.90
16867;DHT22;8550;52.596;13.320;2022-11-15T02:41:16;5.40;99.90
16867;DHT22;8550;52.596;13.320;2022-11-15T02:46:24;5.40;99.90
16867;DHT22;8550;52.596;13.320;2022-11-15T02:51:50;5.40;99.90
16867;DHT22;8550;52.596;13.320;2022-11-15T02:56:55;5.30;99.90
16867;DHT22;8550;52.596;13.320;2022-11-15T03:02:12;5.40;99.90
16867;DHT22;8550;52.596;13.320;2022-11-15T03:07:24;5.30;99.90
16867;DHT22;8550;52.596;13.320;2022-11-15T03:12:36;5.20;99.90
16867;DHT22;8550;52.596;13.320;2022-11-15T03:17:45;5.20;99.90
16867;DHT22;8550;52.596;13.320;2022-11-15T03:22:49;5.20;99.90
16867;DHT22;8550;52.596;13.320;2022-11-15T03:27:54;5.20;99.90
16867;DHT22;8550;52.596;13.320;2022-11-15T03:32:58;5.20;99.90
16867;DHT22;8550;52.596;13.320;2022-11-15T03:38:05;5.20;99.90
16867;DHT22;8550;52.596;13.320;2022-11-15T03:43:15;5.30;99.90
16867;DHT22;8550;52.596;13.320;2022-11-15T03:48:25;5.30;99.90
16867;DHT22;8550;52.596;13.320;2022-11-15T03:53:28;5.40;99.90
16867;DHT22;8550;52.596;13.320;2022-11-15T03:58:31;5.50;99.90
16867;DHT22;8550;52.596;13.320;2022-11-15T04:03:34;5.50;99.90
16867;DHT22;8550;52.596;13.320;2022-11-15T04:08:36;5.50;99.90
16867;DHT22;8550;52.596;13.320;2022-11-15T04:13:38;5.60;99.90
16867;DHT22;8550;52.596;13.320;2022-11-15T04:18:41;5.60;99.90
16867;DHT22;8550;52.596;13.320;2022-11-15T04:23:43;5.90;99.90
16867;DHT22;8550;52.596;13.320;2022-11-15T04:29:02;6.40;99.90
16867;DHT22;8550;52.596;13.320;2022-11-15T04:34:23;6.10;99.90
16867;DHT22;8550;52.596;13.320;2022-11-15T04:39:25;5.90;99.90
16867;DHT22;8550;52.596;13.320;2022-11-15T04:44:27;5.80;99.90
16867;DHT22;8550;52.596;13.320;2022-11-15T04:49:30;5.80;99.90
16867;DHT22;8550;52.596;13.320;2022-11-15T04:54:32;5.70;99.90
16867;DHT22;8550;52.596;13.320;2022-11-15T04:59:34;5.70;99.90
16867;DHT22;8550;52.596;13.320;2022-11-15T05:04:37;5.70;99.90
16867;DHT22;8550;52.596;13.320;2022-11-15T05:09:39;5.60;99.90
16867;DHT22;8550;52.596;13.320;2022-11-15T05:14:41;5.60;99.90
16867;DHT22;8550;52.596;13.320;2022-11-15T05:19:44;5.60;99.90
16867;DHT22;8550;52.596;13.320;2022-11-15T05:24:46;5.50;99.90
16867;DHT22;8550;52.596;13.320;2022-11-15T05:29:48;5.50;99.90
16867;DHT22;8550;52.596;13.320;2022-11-15T05:34:52;5.40;99.90
16867;DHT22;8550;52.596;13.320;2022-11-15T05:39:54;5.30;99.90
16867;DHT22;8550;52.596;13.320;2022-11-15T05:44:57;5.30;99.90
16867;DHT22;8550;52.596;13.320;2022-11-15T05:50:01;5.20;99.90
16867;DHT22;8550;52.596;13.320;2022-11-15T05:55:05;5.10;99.90
16867;DHT22;8550;52.596;13.320;2022-11-15T06:00:08;5.10;99.90
16867;DHT22;8550;52.596;13.320;2022-11-15T06:05:12;5.10;99.90
16867;DHT22;8550;52.596;13.320;2022-11-15T06:10:14;5.00;99.90
16867;DHT22;8550;52.596;13.320;2022-11-15T06:15:16;5.40;99.90
16867;DHT22;8550;52.596;13.320;2022-11-15T06:20:19;5.20;99.90
16867;DHT22;8550;52.596;13.320;2022-11-15T06:25:21;5.10;99.90
16867;DHT22;8550;52.596;13.320;2022-11-15T06:30:24;5.10;99.90
16867;DHT22;8550;52.596;13.320;2022-11-15T06:35:28;5.20;99.90
16867;DHT22;8550;52.596;13.320;2022-11-15T06:40:32;5.20;99.90
16867;DHT22;8550;52.596;13.320;2022-11-15T06:45:34;5.10;99.90
16867;DHT22;8550;52.596;13.320;2022-11-15T06:50:37;5.10;99.90
16867;DHT22;8550;52.596;13.320;2022-11-15T06:55:39;5.10;99.90
16867;DHT22;8550;52.596;13.320;2022-11-15T07:00:41;5.20;99.90
16867;DHT22;8550;52.596;13.320;2022-11-15T07:05:52;5.20;99.90
16867;DHT22;8550;52.596;13.320;2022-11-15T07:10:58;5.30;99.90
16867;DHT22;8550;52.596;13.320;2022-11-15T07:16:02;5.40;99.90
16867;DHT22;8550;52.596;13.320;2022-11-15T07:21:07;5.50;99.90
16867;DHT22;8550;52.596;13.320;2022-11-15T07:26:09;5.60;99.90
16867;DHT22;8550;52.596;13.320;2022-11-15T07:31:11;5.80;99.90
16867;DHT22;8550;52.596;13.320;2022-11-15T07:36:14;5.90;99.90
16867;DHT22;8550;52.596;13.320;2022-11-15T07:41:16;6.10;99.90
16867;DHT22;8550;52.596;13.320;2022-11-15T07:46:18;6.20;99.90
16867;DHT22;8550;52.596;13.320;2022-11-15T07:51:21;6.40;99.90
16867;DHT22;8550;52.596;13.320;2022-11-15T07:56:23;6.50;99.90
16867;DHT22;8550;52.596;13.320;2022-11-15T08:01:25;6.70;99.90
16867;DHT22;8550;52.596;13.320;2022-11-15T08:06:28;6.90;99.90
16867;DHT22;8550;52.596;13.320;2022-11-15T08:11:30;7.10;99.90
16867;DHT22;8550;52.596;13.320;2022-11-15T08:16:32;7.30;99.90
16867;DHT22;8550;52.596;13.320;2022-11-15T08:21:36;7.50;99.90
16867;DHT22;8550;52.596;13.320;2022-11-15T08:26:38;7.70;99.90
16867;DHT22;8550;52.596;13.320;2022-11-15T08:31:40;7.90;99.90
16867;DHT22;8550;52.596;13.320;2022-11-15T08:36:43;8.10;99.90
16867;DHT22;8550;52.596;13.320;2022-11-15T08:41:45;8.30;99.90
16867;DHT22;8550;52.596;13.320;2022-11-15T08:46:47;8.40;99.90
16867;DHT22;8550;52.596;13.320;2022-11-15T08:51:50;8.70;99.90
16867;DHT22;8550;52.596;13.320;2022-11-15T08:56:52;8.90;99.90
16867;DHT22;8550;52.596;13.320;2022-11-15T09:01:54;9.10;99.90
16867;DHT22;8550;52.596;13.320;2022-11-15T09:06:57;9.20;99.90
16867;DHT22;8550;52.596;13.320;2022-11-15T09:11:59;9.50;99.90
16867;DHT22;8550;52.596;13.320;2022-11-15T09:17:01;9.60;99.90
16867;DHT22;8550;52.596;13.320;2022-11-15T09:22:07;9.80;99.90
16867;DHT22;8550;52.596;13.320;2022-11-15T09:27:09;10.00;99.90
16867;DHT22;8550;52.596;13.320;2022-11-15T09:32:11;10.10;99.90
16867;DHT22;8550;52.596;13.320;2022-11-15T09:37:14;10.20;99.90
16867;DHT22;8550;52.596;13.320;2022-11-15T09:42:43;10.40;99.90
16867;DHT22;8550;52.596;13.320;2022-11-15T09:48:00;10.50;99.90
16867;DHT22;8550;52.596;13.320;2022-11-15T09:53:10;10.70;99.90
16867;DHT22;8550;52.596;13.320;2022-11-15T09:58:21;10.90;99.90
16867;DHT22;8550;52.596;13.320;2022-11-15T10:03:28;11.10;99.90
16867;DHT22;8550;52.596;13.320;2022-11-15T10:08:46;11.10;99.90
16867;DHT22;8550;52.596;13.320;2022-11-15T10:13:55;11.40;99.90
16867;DHT22;8550;52.596;13.320;2022-11-15T10:19:03;11.70;99.90
16867;DHT22;8550;52.596;13.320;2022-11-15T10:24:12;12.20;99.90
16867;DHT22;8550;52.596;13.320;2022-11-15T10:29:19;12.60;99.90
16867;DHT22;8550;52.596;13.320;2022-11-15T10:34:23;12.90;99.90
16867;DHT22;8550;52.596;13.320;2022-11-15T10:39:26;13.30;99.90
16867;DHT22;8550;52.596;13.320;2022-11-15T10:44:29;13.90;99.90
16867;DHT22;8550;52.596;13.320;2022-11-15T10:49:32;14.40;99.90
16867;DHT22;8550;52.596;13.320;2022-11-15T10:54:39;15.10;99.90
16867;DHT22;8550;52.596;13.320;2022-11-15T10:59:46;16.00;99.90
16867;DHT22;8550;52.596;13.320;2022-11-15T11:04:51;16.80;99.90
16867;DHT22;8550;52.596;13.320;2022-11-15T11:10:17;17.50;99.90
16867;DHT22;8550;52.596;13.320;2022-11-15T11:15:20;18.00;99.30
16867;DHT22;8550;52.596;13.320;2022-11-15T11:20:30;18.80;97.00
16867;DHT22;8550;52.596;13.320;2022-11-15T11:25:41;19.00;94.50
16867;DHT22;8550;52.596;13.320;2022-11-15T11:30:51;19.10;94.50
16867;DHT22;8550;52.596;13.320;2022-11-15T11:36:08;19.60;92.90
16867;DHT22;8550;52.596;13.320;2022-11-15T11:41:20;20.50;91.10
16867;DHT22;8550;52.596;13.320;2022-11-15T11:51:52;19.80;90.50
16867;DHT22;8550;52.596;13.320;2022-11-15T11:56:58;17.80;94.90
16867;DHT22;8550;52.596;13.320;2022-11-15T12:02:11;16.60;98.90
16867;DHT22;8550;52.596;13.320;2022-11-15T12:07:19;15.80;99.90
16867;DHT22;8550;52.596;13.320;2022-11-15T12:12:30;15.20;99.90
16867;DHT22;8550;52.596;13.320;2022-11-15T12:17:33;15.00;99.90
16867;DHT22;8550;52.596;13.320;2022-11-15T12:22:40;14.70;99.90
16867;DHT22;8550;52.596;13.320;2022-11-15T12:27:48;14.60;99.90
16867;DHT22;8550;52.596;13.320;2022-11-15T12:32:55;14.60;99.90
16867;DHT22;8550;52.596;13.320;2022-11-15T12:37:58;14.40;99.90
16867;DHT22;8550;52.596;13.320;2022-11-15T12:48:58;14.30;99.90
16867;DHT22;8550;52.596;13.320;2022-11-15T12:54:00;14.30;99.90
16867;DHT22;8550;52.596;13.320;2022-11-15T13:10:42;14.20;99.90
16867;DHT22;8550;52.596;13.320;2022-11-15T13:15:55;14.20;99.90
16867;DHT22;8550;52.596;13.320;2022-11-15T13:20:59;14.30;99.90
16867;DHT22;8550;52.596;13.320;2022-11-15T13:26:19;14.40;99.90
16867;DHT22;8550;52.596;13.320;2022-11-15T13:31:28;14.40;99.90
16867;DHT22;8550;52.596;13.320;2022-11-15T13:36:33;14.60;99.90
16867;DHT22;8550;52.596;13.320;2022-11-15T13:41:37;14.60;99.90
16867;DHT22;8550;52.596;13.320;2022-11-15T13:46:45;14.40;99.90
16867;DHT22;8550;52.596;13.320;2022-11-15T13:51:50;14.40;99.90
16867;DHT22;8550;52.596;13.320;2022-11-15T13:56:57;14.30;99.90
16867;DHT22;8550;52.596;13.320;2022-11-15T14:02:10;14.20;99.90
16867;DHT22;8550;52.596;13.320;2022-11-15T14:07:18;14.10;99.90
16867;DHT22;8550;52.596;13.320;2022-11-15T14:12:24;14.10;99.90
16867;DHT22;8550;52.596;13.320;2022-11-15T14:17:35;14.10;99.90
16867;DHT22;8550;52.596;13.320;2022-11-15T14:22:51;13.50;99.90
16867;DHT22;8550;52.596;13.320;2022-11-15T14:28:28;13.30;99.90
16867;DHT22;8550;52.596;13.320;2022-11-15T14:33:32;13.20;99.90
16867;DHT22;8550;52.596;13.320;2022-11-15T14:38:36;13.10;99.90
16867;DHT22;8550;52.596;13.320;2022-11-15T14:43:37;12.90;99.90
16867;DHT22;8550;52.596;13.320;2022-11-15T14:48:39;12.80;99.90
16867;DHT22;8550;52.596;13.320;2022-11-15T14:53:44;12.60;99.90
16867;DHT22;8550;52.596;13.320;2022-11-15T14:58:46;12.40;99.90
16867;DHT22;8550;52.596;13.320;2022-11-15T15:03:49;12.20;99.90
16867;DHT22;8550;52.596;13.320;2022-11-15T15:08:53;12.00;99.90
16867;DHT22;8550;52.596;13.320;2022-11-15T15:13:55;11.90;99.90
16867;DHT22;8550;52.596;13.320;2022-11-15T15:19:00;11.70;99.90
16867;DHT22;8550;52.596;13.320;2022-11-15T15:24:03;11.60;99.90
16867;DHT22;8550;52.596;13.320;2022-11-15T15:29:05;11.40;99.90
16867;DHT22;8550;52.596;13.320;2022-11-15T15:34:10;11.30;99.90
16867;DHT22;8550;52.596;13.320;2022-11-15T15:39:13;11.10;99.90
16867;DHT22;8550;52.596;13.320;2022-11-15T15:44:15;11.10;99.90
16867;DHT22;8550;52.596;13.320;2022-11-15T15:49:17;11.00;99.90
16867;DHT22;8550;52.596;13.320;2022-11-15T15:54:21;10.90;99.90
16867;DHT22;8550;52.596;13.320;2022-11-15T15:59:22;10.80;99.90
16867;DHT22;8550;52.596;13.320;2022-11-15T16:04:24;10.80;99.90
16867;DHT22;8550;52.596;13.320;2022-11-15T16:09:28;10.60;99.90
16867;DHT22;8550;52.596;13.320;2022-11-15T16:14:47;10.60;99.90
16867;DHT22;8550;52.596;13.320;2022-11-15T16:19:49;10.50;99.90
16867;DHT22;8550;52.596;13.320;2022-11-15T16:24:52;10.30;99.90
16867;DHT22;8550;52.596;13.320;2022-11-15T16:29:54;10.30;99.90
16867;DHT22;8550;52.596;13.320;2022-11-15T16:34:56;10.20;99.90
16867;DHT22;8550;52.596;13.320;2022-11-15T16:40:01;10.10;99.90
16867;DHT22;8550;52.596;13.320;2022-11-15T16:45:03;9.90;99.90
16867;DHT22;8550;52.596;13.320;2022-11-15T16:50:06;9.70;99.90
16867;DHT22;8550;52.596;13.320;2022-11-15T16:55:12;9.70;99.90
16867;DHT22;8550;52.596;13.320;2022-11-15T17:00:15;9.60;99.90
16867;DHT22;8550;52.596;13.320;2022-11-15T17:05:20;9.40;99.90
16867;DHT22;8550;52.596;13.320;2022-11-15T17:10:26;9.30;99.90
16867;DHT22;8550;52.596;13.320;2022-11-15T17:15:28;9.10;99.90
16867;DHT22;8550;52.596;13.320;2022-11-15T17:20:30;9.00;99.90
16867;DHT22;8550;52.596;13.320;2022-11-15T17:25:35;8.90;99.90
16867;DHT22;8550;52.596;13.320;2022-11-15T17:30:40;8.70;99.90
16867;DHT22;8550;52.596;13.320;2022-11-15T17:35:42;8.60;99.90
16867;DHT22;8550;52.596;13.320;2022-11-15T17:40:45;8.50;99.90
16867;DHT22;8550;52.596;13.320;2022-11-15T17:45:47;8.40;99.90
16867;DHT22;8550;52.596;13.320;2022-11-15T17:50:57;8.30;99.90
16867;DHT22;8550;52.596;13.320;2022-11-15T17:56:02;8.20;99.90
16867;DHT22;8550;52.596;13.320;2022-11-15T18:01:06;8.00;99.90
16867;DHT22;8550;52.596;13.320;2022-11-15T18:06:09;8.00;99.90
16867;DHT22;8550;52.596;13.320;2022-11-15T18:11:14;7.90;99.90
16867;DHT22;8550;52.596;13.320;2022-11-15T18:16:18;7.80;99.90
16867;DHT22;8550;52.596;13.320;2022-11-15T18:21:21;7.60;99.90
16867;DHT22;8550;52.596;13.320;2022-11-15T18:26:26;7.40;99.90
16867;DHT22;8550;52.596;13.320;2022-11-15T18:31:29;7.20;99.90
16867;DHT22;8550;52.596;13.320;2022-11-15T18:36:32;7.00;99.90
16867;DHT22;8550;52.596;13.320;2022-11-15T18:41:35;7.00;99.90
16867;DHT22;8550;52.596;13.320;2022-11-15T18:46:37;6.90;99.90
16867;DHT22;8550;52.596;13.320;2022-11-15T18:51:40;6.90;99.90
16867;DHT22;8550;52.596;13.320;2022-11-15T18:56:43;6.90;99.90
16867;DHT22;8550;52.596;13.320;2022-11-15T19:01:46;6.90;99.90
16867;DHT22;8550;52.596;13.320;2022-11-15T19:06:49;6.80;99.90
16867;DHT22;8550;52.596;13.320;2022-11-15T19:11:54;7.00;99.90
16867;DHT22;8550;52.596;13.320;2022-11-15T19:16:56;7.00;99.90
16867;DHT22;8550;52.596;13.320;2022-11-15T19:21:59;6.90;99.90
16867;DHT22;8550;52.596;13.320;2022-11-15T19:27:02;6.90;99.90
16867;DHT22;8550;52.596;13.320;2022-11-15T19:32:04;6.90;99.90
16867;DHT22;8550;52.596;13.320;2022-11-15T19:37:06;6.90;99.90
16867;DHT22;8550;52.596;13.320;2022-11-15T19:42:09;6.90;99.90
16867;DHT22;8550;52.596;13.320;2022-11-15T19:47:11;7.00;99.90
16867;DHT22;8550;52.596;13.320;2022-11-15T19:52:13;6.90;99.90
16867;DHT22;8550;52.596;13.320;2022-11-15T19:57:16;7.00;99.90
16867;DHT22;8550;52.596;13.320;2022-11-15T20:02:18;7.00;99.90
16867;DHT22;8550;52.596;13.320;2022-11-15T20:07:20;7.00;99.90
16867;DHT22;8550;52.596;13.320;2022-11-15T20:12:24;7.00;99.90
16867;DHT22;8550;52.596;13.320;2022-11-15T20:17:27;7.00;99.90
16867;DHT22;8550;52.596;13.320;2022-11-15T20:22:29;7.10;99.90
16867;DHT22;8550;52.596;13.320;2022-11-15T20:27:32;7.00;99.90
16867;DHT22;8550;52.596;13.320;2022-11-15T20:32:34;7.00;99.90
16867;DHT22;8550;52.596;13.320;2022-11-15T20:37:36;7.00;99.90
16867;DHT22;8550;52.596;13.320;2022-11-15T20:42:39;7.00;99.90
16867;DHT22;8550;52.596;13.320;2022-11-15T20:47:41;7.00;99.90
16867;DHT22;8550;52.596;13.320;2022-11-15T20:52:43;7.00;99.90
16867;DHT22;8550;52.596;13.320;2022-11-15T20:57:47;7.00;99.90
16867;DHT22;8550;52.596;13.320;2022-11-15T21:02:49;6.90;99.90
16867;DHT22;8550;52.596;13.320;2022-11-15T21:07:51;6.90;99.90
16867;DHT22;8550;52.596;13.320;2022-11-15T21:12:54;6.90;99.90
16867;DHT22;8550;52.596;13.320;2022-11-15T21:17:56;6.90;99.90
16867;DHT22;8550;52.596;13.320;2022-11-15T21:22:58;6.90;99.90
16867;DHT22;8550;52.596;13.320;2022-11-15T21:28:02;6.90;99.90
16867;DHT22;8550;52.596;13.320;2022-11-15T21:33:03;7.00;99.90
16867;DHT22;8550;52.596;13.320;2022-11-15T21:38:05;7.00;99.90
16867;DHT22;8550;52.596;13.320;2022-11-15T21:43:09;6.90;99.90
16867;DHT22;8550;52.596;13.320;2022-11-15T21:48:10;7.00;99.90
16867;DHT22;8550;52.596;13.320;2022-11-15T21:53:12;7.00;99.90
16867;DHT22;8550;52.596;13.320;2022-11-15T21:58:16;6.90;99.90
16867;DHT22;8550;52.596;13.320;2022-11-15T22:03:18;6.90;99.90
16867;DHT22;8550;52.596;13.320;2022-11-15T22:08:20;7.00;99.90
16867;DHT22;8550;52.596;13.320;2022-11-15T22:13:24;6.90;99.90
16867;DHT22;8550;52.596;13.320;2022-11-15T22:18:26;6.90;99.90
16867;DHT22;8550;52.596;13.320;2022-11-15T22:23:30;6.80;99.90
16867;DHT22;8550;52.596;13.320;2022-11-15T22:28:34;6.90;99.90
16867;DHT22;8550;52.596;13.320;2022-11-15T22:33:36;6.90;99.90
16867;DHT22;8550;52.596;13.320;2022-11-15T22:38:38;6.90;99.90
16867;DHT22;8550;52.596;13.320;2022-11-15T22:43:41;6.90;99.90
16867;DHT22;8550;52.596;13.320;2022-11-15T22:48:43;6.80;99.90
16867;DHT22;8550;52.596;13.320;2022-11-15T22:53:45;6.80;99.90
16867;DHT22;8550;52.596;13.320;2022-11-15T22:58:48;6.80;99.90
16867;DHT22;8550;52.596;13.320;2022-11-15T23:03:49;6.90;99.90
16867;DHT22;8550;52.596;13.320;2022-11-15T23:08:51;6.90;99.90
16867;DHT22;8550;52.596;13.320;2022-11-15T23:13:55;6.90;99.90
16867;DHT22;8550;52.596;13.320;2022-11-15T23:18:58;6.90;99.90
16867;DHT22;8550;52.596;13.320;2022-11-15T23:24:00;6.90;99.90
16867;DHT22;8550;52.596;13.320;2022-11-15T23:29:03;6.90;99.90
16867;DHT22;8550;52.596;13.320;2022-11-15T23:34:05;6.90;99.90
16867;DHT22;8550;52.596;13.320;2022-11-15T23:39:07;6.90;99.90
16867;DHT22;8550;52.596;13.320;2022-11-15T23:44:10;6.80;99.90
16867;DHT22;8550;52.596;13.320;2022-11-15T23:49:12;6.80;99.90
16867;DHT22;8550;52.596;13.320;2022-11-15T23:54:14;6.80;99.90
16867;DHT22;8550;52.596;13.320;2022-11-15T23:59:17;6.70;99.90
